logo
App data

Daemon Detective Gaiden

Dodge the carnage! Whack the daemons! Get those paintings back! With a whopping 120 of them on the loose, you're gonna need every single bit of your wits and every single power-up you can carry to finish your mission. Do you have what it takes to become a Daemon Detective?
Store | Hub | SteamDB
Developer: Yal Publisher: Degica
Genre: Action, Adventure, Indie
Languages: English
Tags: Indie (33), Adventure (33), Action (32)
Category: Single-player, Steam Trading Cards, Partial Controller Support
Release date: Aug 14, 2015
Price: $9.99
Owners: 0 .. 20,000
Followers: 175

Steam Spy is still in beta, so expect major bugs.

Owners data:

Access restricted.

This feature is only available to users with special access rights. Sorry.

If you want to proceed, you need to register or log in first and then back Steam Spy on Patreon. Look for Indie or Pro pledge.

Don't forget to use the same email as on Steam Spy!

If you've recently backed Steam Spy on Patreon, please note, that it might take around 15 minutes for your access rights to sync. In most cases you'll need to re-login on Steam Spy too.

Audience in 2 weeks:

Access restricted.

This feature is only available to users with special access rights. Sorry.

If you want to proceed, you need to register or log in first and then back Steam Spy on Patreon. Look for Indie or Pro pledge.

Don't forget to use the same email as on Steam Spy!

If you've recently backed Steam Spy on Patreon, please note, that it might take around 15 minutes for your access rights to sync. In most cases you'll need to re-login on Steam Spy too.

Peak daily concurrent players:

CCU data courtesy of SteamDB. Used with permission.

Hourly concurrent players:

Followers over time

Access restricted.

This feature is only available to users with special access rights. Sorry.

If you want to proceed, you need to register or log in first and then back Steam Spy on Patreon. Look for Indie or Pro pledge.

Don't forget to use the same email as on Steam Spy!

If you've recently backed Steam Spy on Patreon, please note, that it might take around 15 minutes for your access rights to sync. In most cases you'll need to re-login on Steam Spy too.

Views for top 50 videos on YouTube for this game:

Games similar to this one:

# Game Release date
Price
Score rank
(Userscore / Metascore)
Owners
Players
Playtime (Median)
1 2 Ninjas 1 Cup Feb 3, 2017 $0.99N/A (N/A)0 .. 20,0000%00:00 (00:00)
2 Zoop! - Hunter's Grimm Mar 3, 2017 $1.99N/A (N/A)200,000 .. 500,0000%00:00 (00:00)
3 Gunman Taco Truck Jan 28, 2017 $2.99N/A (N/A)0 .. 20,0000%00:00 (00:00)
4 Chicken Invaders 3 Jun 8, 2015 $4.99N/A (N/A)0 .. 20,0000%00:00 (00:00)
5 Excubitor May 26, 2016 $14.99N/A (N/A/69%)0 .. 20,0000%00:00 (00:00)
6 HitBox Jan 30, 2017 FreeN/A (N/A)20,000 .. 50,0000%00:00 (00:00)
7 SWR JST DX Selective Memory Erase Effect Apr 20, 2015 $4.99N/A (N/A)0 .. 20,0000%00:00 (00:00)
8 Total Extreme Wrestling 2010 Mar 19, 2015 $14.99N/A (N/A)0 .. 20,0000%00:00 (00:00)
9 Curse of the Crescent Isle DX Aug 21, 2015 $0.99N/A (N/A)0 .. 20,0000%00:00 (00:00)
10 Garden Rescue Feb 2, 2015 $3.99N/A (N/A)100,000 .. 200,0000%00:00 (00:00)
11 Disposable Heroes Oct 1, 2015 $1.99N/A (N/A)20,000 .. 50,0000%00:00 (00:00)
12 No Pineapple Left Behind Feb 18, 2016 $6.99N/A (N/A/59%)0 .. 20,0000%00:00 (00:00)
13 Hostile Dimension Jun 25, 2015 $1.99N/A (N/A)0 .. 20,0000%00:00 (00:00)
14 MadSpace: To Hell and Beyond Jan 1, 1997 $5.99N/A (N/A)0 .. 20,0000%00:00 (00:00)
15 Explosionade Sep 23, 2015 $3.99N/A (N/A)0 .. 20,0000%00:00 (00:00)
16 Kaiju Panic Oct 9, 2015 $9.99N/A (N/A)0 .. 20,0000%00:00 (00:00)
17 Island Defense Jul 23, 2015 $1.99N/A (N/A)50,000 .. 100,0000%00:00 (00:00)
18 Cuban Missile Crisis: Ice Crusade Jul 29, 2005 $4.99N/A (N/A)20,000 .. 50,0000%00:00 (00:00)
19 Ground Breakers Jun 15, 2016 $0.99N/A (N/A)20,000 .. 50,0000%00:00 (00:00)
20 Interloper May 21, 2015 FreeN/A (N/A/77%)20,000 .. 50,0000%00:00 (00:00)
21 Azure Striker Gunvolt Aug 28, 2015 $14.99N/A (N/A)50,000 .. 100,0000%00:00 (00:00)
22 Trap Them - Sniper Edition Oct 9, 2015 $3.99N/A (N/A)0 .. 20,0000%00:00 (00:00)
23 Epic Manager - Create Your Own Adventuring Agency! Dec 12, 2016 $17.99N/A (N/A)0 .. 20,0000%00:00 (00:00)
24 Eternal Destiny Apr 21, 2016 $9.99N/A (N/A)20,000 .. 50,0000%00:00 (00:00)
25 Mayhem Triple Sep 4, 2015 $4.99N/A (N/A)0 .. 20,0000%00:00 (00:00)
26 Mortos Nov 14, 2016 $0.99N/A (N/A)0 .. 20,0000%00:00 (00:00)
27 Systematic Immunity May 20, 2016 $6.99N/A (N/A)0 .. 20,0000%00:00 (00:00)
28 SEEP Universe Jul 15, 2015 $1.49N/A (N/A)0 .. 20,0000%00:00 (00:00)
29 Porradaria Upgrade Oct 2, 2013 N/AN/A (N/A)20,000 .. 50,0000%00:00 (00:00)
30 Princess Kaguya: Legend of the Moon Warrior Aug 4, 2015 $2.19N/A (N/A)0 .. 20,0000%00:00 (00:00)
31 Wuppo: Definitive Edition Sep 29, 2016 $14.99N/A (N/A/78%)500,000 .. 1,000,0000%00:00 (00:00)
32 Magical Brickout Oct 17, 2016 $7.99N/A (N/A)0 .. 20,0000%00:00 (00:00)
33 Akuatica Nov 27, 2015 $4.99N/A (N/A)0 .. 20,0000%00:00 (00:00)
34 Ninjahtic Jul 6, 2015 $1.99N/A (N/A)0 .. 20,0000%00:00 (00:00)
35 Dungeon Manager ZV Oct 16, 2015 $9.99N/A (N/A)0 .. 20,0000%00:00 (00:00)
36 Cashtronauts Sep 1, 2016 $2.99N/A (N/A)0 .. 20,0000%00:00 (00:00)
37 Crush Your Enemies Jul 13, 2016 $9.99N/A (N/A/63%)20,000 .. 50,0000%00:00 (00:00)
38 Megamagic: Wizards of the Neon Age Apr 20, 2016 $2.99N/A (N/A/67%)20,000 .. 50,0000%00:00 (00:00)
39 Age of Gladiators Feb 25, 2016 $9.99N/A (N/A)0 .. 20,0000%00:00 (00:00)
40 Karaski: What Goes Up... Mar 2, 2016 $11.99N/A (N/A)100,000 .. 200,0000%00:00 (00:00)
41 Marble Mountain Apr 4, 2016 $4.99N/A (N/A)0 .. 20,0000%00:00 (00:00)
42 Pills4Skills Jan 25, 2016 $2.99N/A (N/A)0 .. 20,0000%00:00 (00:00)
43 Run Rabbit Run Mar 31, 2016 $3.99N/A (N/A)0 .. 20,0000%00:00 (00:00)
44 Phoning Home Feb 7, 2017 $9.99N/A (N/A/61%)50,000 .. 100,0000%00:00 (00:00)
45 Acorn Assault: Rodent Revolution Mar 2, 2016 $9.99N/A (N/A)0 .. 20,0000%00:00 (00:00)
46 Nuts!: The Battle of the Bulge Feb 12, 2016 $9.99N/A (N/A)0 .. 20,0000%00:00 (00:00)
47 Elements: Epic Heroes Dec 21, 2015 $6.99N/A (N/A)0 .. 20,0000%00:00 (00:00)
48 INVERSUS Deluxe Aug 16, 2016 $14.99N/A (N/A)0 .. 20,0000%00:00 (00:00)
49 Rocket Fist May 12, 2016 $4.99N/A (N/A)0 .. 20,0000%00:00 (00:00)
50 Rush for gold: Alaska Jan 14, 2016 $3.99N/A (N/A)20,000 .. 50,0000%00:00 (00:00)
51 Pang Adventures Apr 18, 2016 $3.99N/A (N/A)20,000 .. 50,0000%00:00 (00:00)
52 Lolly Joe Aug 5, 2016 N/AN/A (N/A)0 .. 20,0000%00:00 (00:00)
53 Left Alone Apr 28, 2016 $6.99N/A (N/A)20,000 .. 50,0000%00:00 (00:00)
54 Assault Suit Leynos Aug 30, 2016 $19.99N/A (N/A)0 .. 20,0000%00:00 (00:00)
55 Worlds of Magic Mar 19, 2015 $24.99N/A (N/A/52%)20,000 .. 50,0000%00:00 (00:00)
56 Battle Academy 2: Eastern Front Sep 12, 2014 $39.99N/A (N/A/78%)0 .. 20,0000%00:00 (00:00)
57 Orc Attack: Flatulent Rebellion May 15, 2014 $9.99N/A (N/A)20,000 .. 50,0000%00:00 (00:00)
58 Hearts of Iron 2 Complete Jan 6, 2006 $14.99N/A (N/A/83%)100,000 .. 200,0000%00:00 (00:00)
59 Super Chibi Knight Jun 24, 2015 $4.99N/A (N/A)20,000 .. 50,0000%00:00 (00:00)
60 Star Wolves 2 Mar 2, 2010 $3.99N/A (N/A)50,000 .. 100,0000%00:00 (00:00)
61 Conflicks - Revolutionary Space Battles Nov 5, 2015 $6.99N/A (N/A/63%)20,000 .. 50,0000%00:00 (00:00)
62 Carrier Command: Gaea Mission Sep 28, 2012 $32.99N/A (N/A/60%)200,000 .. 500,0007.69%00:54 (00:18)
63 Navpoint Sep 23, 2015 $4.99N/A (N/A)0 .. 20,0000%00:00 (00:00)
64 Final Exam Nov 5, 2013 $9.99N/A (N/A/66%)100,000 .. 200,0000%00:00 (00:00)
65 Zombies on a Plane Mar 25, 2016 $4.99N/A (N/A)20,000 .. 50,0000%00:00 (00:00)
66 Livelock Aug 30, 2016 $9.99N/A (N/A/73%)100,000 .. 200,0000%00:00 (00:00)
67 Pure Chess Grandmaster Edition Sep 9, 2016 $15.99N/A (N/A)0 .. 20,0000%00:00 (00:00)
68 Ninja Cats vs Samurai Dogs Feb 21, 2014 $4.99N/A (N/A)0 .. 20,0000%00:00 (00:00)
69 Storm over the Pacific Jun 13, 2014 $9.99N/A (N/A)0 .. 20,0000%00:00 (00:00)
70 Global Outbreak: Doomsday Edition Aug 11, 2014 $8.99N/A (N/A)0 .. 20,0000%00:00 (00:00)
71 Frontline : Road to Moscow Aug 8, 2014 $9.99N/A (N/A)0 .. 20,0000%00:00 (00:00)
72 Guards Aug 19, 2016 $1.24N/A (N/A/49%)50,000 .. 100,0000%00:00 (00:00)
73 Secret Santa Dec 1, 2016 FreeN/A (N/A)0 .. 20,0000%00:00 (00:00)
74 Uprising: Join or Die May 19, 2016 $6.99N/A (N/A)0 .. 20,0000%00:00 (00:00)
75 Skautfold: Shrouded in Sanity May 27, 2016 $4.99N/A (N/A)20,000 .. 50,0000%00:00 (00:00)
76 Dyna Bomb May 13, 2016 $1.99N/A (N/A)0 .. 20,0000%00:00 (00:00)
77 Stellar Monarch Dec 5, 2016 $19.99N/A (N/A)20,000 .. 50,0000%00:00 (00:00)
78 She Wants Me Dead May 13, 2016 $7.99N/A (N/A)20,000 .. 50,0000%00:00 (00:00)
79 Blade Arcus from Shining: Battle Arena Jul 28, 2016 $29.99N/A (N/A)0 .. 20,0000%00:00 (00:00)
80 Snow Fortress Dec 16, 2016 $14.99N/A (N/A)0 .. 20,0000%00:00 (00:00)
81 Meld May 11, 2016 $4.99N/A (N/A)0 .. 20,0000%00:00 (00:00)
82 Shattered Throne Nov 28, 2016 $9.99N/A (N/A)0 .. 20,0000%00:00 (00:00)
83 Seven Kingdoms: Ancient Adversaries Mar 22, 2016 $2.39N/A (N/A)20,000 .. 50,0000%00:00 (00:00)
84 VERSUS SQUAD Oct 26, 2016 $7.99N/A (N/A)50,000 .. 100,0000%00:00 (00:00)
85 Decisive Campaigns: Barbarossa Apr 29, 2016 $49.99N/A (N/A)0 .. 20,0000%00:00 (00:00)
86 Eador. Imperium Jan 27, 2017 $19.99N/A (N/A)0 .. 20,0000%00:00 (00:00)
87 Atriage Apr 7, 2016 $9.99N/A (N/A)0 .. 20,0000%00:00 (00:00)
88 Pigmentone Jul 8, 2016 $1.99N/A (N/A)0 .. 20,0000%00:00 (00:00)
89 Drive on Moscow Oct 27, 2016 $9.99N/A (N/A)0 .. 20,0000%00:00 (00:00)
90 Child Of Ault Jan 24, 2017 $9.99N/A (N/A)0 .. 20,0000%00:00 (00:00)
91 Twixel Nov 18, 2016 $1.99N/A (N/A)0 .. 20,0000%00:00 (00:00)
92 Extravaganza Rising Jul 21, 2016 N/AN/A (N/A)50,000 .. 100,0000%00:00 (00:00)
93 Pixel-Warfare: Pro Sep 20, 2016 $0.99N/A (N/A)50,000 .. 100,0000%00:00 (00:00)
94 Battle Time Sep 29, 2016 $0.99N/A (N/A)50,000 .. 100,0000%00:00 (00:00)
95 SPINGUN Nov 11, 2016 $1.99N/A (N/A)20,000 .. 50,0000%00:00 (00:00)
96 Miaou Moon Aug 18, 2016 $5.99N/A (N/A)0 .. 20,0000%00:00 (00:00)
97 Leviathan Starblade Nov 3, 2016 $2.99N/A (N/A)0 .. 20,0000%00:00 (00:00)
98 LUXIS Oct 26, 2016 $4.99N/A (N/A)20,000 .. 50,0000%00:00 (00:00)
99 DeathMetal Nov 18, 2016 $2.99N/A (N/A)20,000 .. 50,0000%00:00 (00:00)
100 Ellipsis Jan 25, 2017 $1.99N/A (N/A)0 .. 20,0000%00:00 (00:00)
101 Illyriad - Grand Strategy MMO Jan 11, 2017 $4.99N/A (N/A)0 .. 20,0000%00:00 (00:00)
102 illumine Sep 29, 2016 $5.99N/A (N/A)0 .. 20,0000%00:00 (00:00)
103 Leap Up no jutsu Dec 22, 2016 $0.99N/A (N/A)20,000 .. 50,0000%00:00 (00:00)
104 Zombo Buster Rising Oct 2, 2016 $1.99N/A (N/A)0 .. 20,0000%00:00 (00:00)
105 Empire of Angels IV Dec 15, 2016 $14.99N/A (N/A)20,000 .. 50,0000%00:00 (00:00)
106 The Body Changer Oct 15, 2015 $29.99N/A (N/A)0 .. 20,0000%00:00 (00:00)
107 Stay Dead Evolution Feb 4, 2015 $5.99N/A (N/A)20,000 .. 50,0000%00:00 (00:00)
108 Gemini: Heroes Reborn Jan 18, 2016 $2.99N/A (N/A/54%)50,000 .. 100,0000%00:00 (00:00)
109 Othello Aug 5, 2016 N/AN/A (N/A)20,000 .. 50,0000%00:00 (00:00)
110 The Warlock of Firetop Mountain Aug 30, 2016 $19.99N/A (N/A/70%)50,000 .. 100,0000%00:00 (00:00)
111 Gold Rush! Classic Dec 23, 1988 $2.99N/A (N/A)100,000 .. 200,0000%00:00 (00:00)
112 Smugglers 5: Invasion Oct 16, 2014 $9.99N/A (N/A)0 .. 20,0000%00:00 (00:00)
113 Zoo Rampage Jul 9, 2014 $3.99N/A (N/A)20,000 .. 50,0000%00:00 (00:00)
114 Across the Rhine Jul 1, 1995 $6.99N/A (N/A)0 .. 20,0000%00:00 (00:00)
115 Alea Jacta Est Sep 27, 2012 $24.99N/A (N/A)50,000 .. 100,0000%00:00 (00:00)
116 Mystik Belle May 15, 2015 $14.99N/A (N/A)0 .. 20,0000%00:00 (00:00)
117 The Sun at Night Aug 1, 2014 $4.99N/A (N/A/59%)0 .. 20,0000%00:00 (00:00)
118 Vintage Year Jan 2, 2015 $3.99N/A (N/A)20,000 .. 50,0000%00:00 (00:00)
119 Prophour23 Oct 22, 2014 $9.99N/A (N/A)20,000 .. 50,0000%00:00 (00:00)
120 Disney's Chicken Little Oct 20, 2005 $9.99N/A (N/A)20,000 .. 50,0000%00:00 (00:00)
121 Burnstar Mar 18, 2015 $4.99N/A (N/A)0 .. 20,0000%00:00 (00:00)
122 Cyber Chicken Nov 23, 2016 $0.99N/A (N/A)0 .. 20,0000%00:00 (00:00)

Tags over time:

Access restricted.

This feature is only available to users with special access rights. Sorry.

If you want to proceed, you need to register or log in first and then back Steam Spy on Patreon. Look for Indie or Pro pledge.

Don't forget to use the same email as on Steam Spy!

If you've recently backed Steam Spy on Patreon, please note, that it might take around 15 minutes for your access rights to sync. In most cases you'll need to re-login on Steam Spy too.

Owners of this game also own:

Access restricted.

This feature is only available to users with special access rights. Sorry.

If you want to proceed, you need to register or log in first and then back Steam Spy on Patreon. Look for Indie or Pro pledge.

Don't forget to use the same email as on Steam Spy!

If you've recently backed Steam Spy on Patreon, please note, that it might take around 15 minutes for your access rights to sync. In most cases you'll need to re-login on Steam Spy too.

Playtime distribution:

Access restricted.

This feature is only available to users with special access rights. Sorry.

If you want to proceed, you need to register or log in first and then back Steam Spy on Patreon. Look for Indie or Pro pledge.

Don't forget to use the same email as on Steam Spy!

If you've recently backed Steam Spy on Patreon, please note, that it might take around 15 minutes for your access rights to sync. In most cases you'll need to re-login on Steam Spy too.

Playtime (2 weeks):

Access restricted.

This feature is only available to users with special access rights. Sorry.

If you want to proceed, you need to register or log in first and then back Steam Spy on Patreon. Look for Indie or Pro pledge.

Don't forget to use the same email as on Steam Spy!

If you've recently backed Steam Spy on Patreon, please note, that it might take around 15 minutes for your access rights to sync. In most cases you'll need to re-login on Steam Spy too.

User reviews:

Login required.

Please register or log in to see this information.